Time;durP1;ratioP1;P1;durP2;ratioP2;P2;SDS_P1;SDS_P2;PMS_P1;PMS_P2;Temp;Humidity;BMP_temperature;BMP_pressure;BME280_temperature;BME280_humidity;BME280_pressure;Samples;Min_cycle;Max_cycle;Signal;HPM_P1;HPM_P2
2022/11/20 00:02:20;;;;;;;7.88;3.47;;;;;;;12.80;69.14;94089.81;5075559;28;20039;-74
2022/11/20 00:04:46;;;;;;;6.68;3.88;;;;;;;12.79;68.88;94088.19;5111980;28;20042;-75
2022/11/20 00:07:11;;;;;;;6.63;4.05;;;;;;;12.86;68.92;94102.22;5106437;28;20019;-75
2022/11/20 00:09:37;;;;;;;7.88;4.47;;;;;;;12.92;68.72;94096.34;5091574;28;20032;-74
2022/11/20 00:12:03;;;;;;;11.27;6.82;;;;;;;12.86;68.96;94097.00;5090306;28;20039;-75
2022/11/20 00:14:28;;;;;;;10.63;5.32;;;;;;;12.89;69.53;94114.91;5073670;28;20028;-74
2022/11/20 00:16:53;;;;;;;9.20;5.97;;;;;;;12.95;69.17;94110.88;5108701;28;20031;-74
2022/11/20 00:19:19;;;;;;;10.45;5.78;;;;;;;12.99;68.83;94114.00;5093811;28;20088;-75
2022/11/20 00:21:44;;;;;;;8.57;5.30;;;;;;;12.91;68.96;94088.72;5087501;28;20036;-74
2022/11/20 00:24:10;;;;;;;7.15;5.07;;;;;;;13.01;69.14;94078.97;5073379;28;20028;-75
2022/11/20 00:26:35;;;;;;;10.07;6.65;;;;;;;12.75;69.48;94079.84;5073324;28;20040;-74
2022/11/20 00:29:01;;;;;;;10.30;5.10;;;;;;;12.77;69.48;94058.06;5056456;28;20031;-74
2022/11/20 00:31:27;;;;;;;8.32;6.65;;;;;;;12.69;70.45;94079.69;5092368;28;20047;-74
2022/11/20 00:33:52;;;;;;;8.50;5.65;;;;;;;12.68;70.40;94088.47;5089904;28;20028;-74
2022/11/20 00:36:20;;;;;;;10.15;5.90;;;;;;;12.73;69.68;94060.13;5057088;28;20047;-74
2022/11/20 00:38:46;;;;;;;6.63;5.10;;;;;;;12.65;70.03;94073.97;5094677;28;20289;-74
2022/11/20 00:41:13;;;;;;;5.72;4.28;;;;;;;12.81;69.15;94072.38;5076439;28;20043;-74
2022/11/20 00:43:38;;;;;;;7.30;4.10;;;;;;;12.82;69.42;94085.28;5110256;28;20024;-74
2022/11/20 00:46:06;;;;;;;5.80;4.05;;;;;;;12.77;69.96;94086.72;5083250;28;20430;-75
2022/11/20 00:48:31;;;;;;;7.88;3.88;;;;;;;12.69;69.50;94064.84;5056406;28;20405;-75
2022/11/20 00:50:57;;;;;;;5.95;3.92;;;;;;;12.87;69.15;94083.00;5107116;28;20301;-74
2022/11/20 00:53:22;;;;;;;7.00;3.22;;;;;;;12.84;68.78;94096.38;5109875;28;20031;-75
2022/11/20 00:55:54;;;;;;;5.93;3.47;;;;;;;12.97;68.35;94114.13;5110036;28;20493;-75
2022/11/20 00:58:20;;;;;;;7.78;3.30;;;;;;;12.92;68.47;94098.16;5111466;28;20027;-74
2022/11/20 01:00:45;;;;;;;4.65;3.13;;;;;;;12.86;68.54;94102.22;5092969;28;20093;-74
2022/11/20 01:03:11;;;;;;;6.20;3.50;;;;;;;13.04;68.08;94115.16;5107704;28;20106;-75
2022/11/20 01:05:36;;;;;;;5.63;3.03;;;;;;;13.08;68.00;94102.59;5108560;28;20032;-74
2022/11/20 01:08:02;;;;;;;4.93;3.28;;;;;;;12.90;67.08;94087.09;5076201;28;20057;-75
2022/11/20 01:10:27;;;;;;;5.25;2.70;;;;;;;13.10;65.89;94098.06;5077082;28;20052;-75
2022/11/20 01:13:36;;;;;;;3.42;2.25;;;;;;;13.48;64.00;94070.56;5095254;28;20024;-74
2022/11/20 01:15:38;;;;;;;3.83;2.05;;;;;;;13.60;64.39;94068.47;5107861;28;20064;-74
2022/11/20 01:18:05;;;;;;;5.30;2.00;;;;;;;13.71;64.47;94060.31;5096842;28;20038;-74
2022/11/20 01:20:33;;;;;;;4.63;1.70;;;;;;;13.65;64.23;94068.81;5097254;28;20453;-74
2022/11/20 01:22:59;;;;;;;2.53;1.60;;;;;;;13.70;64.01;94070.91;5113589;28;20036;-74
2022/11/20 01:25:24;;;;;;;3.67;1.80;;;;;;;13.83;64.79;94058.97;5080117;28;20065;-74
2022/11/20 01:27:50;;;;;;;5.60;2.38;;;;;;;13.89;64.50;94054.91;5111936;28;20038;-74
2022/11/20 01:30:15;;;;;;;2.88;1.40;;;;;;;14.02;60.79;94036.13;5115089;28;20031;-74
2022/11/20 01:32:40;;;;;;;5.68;1.80;;;;;;;14.28;59.79;94031.44;5095101;28;20031;-74
2022/11/20 01:35:06;;;;;;;2.92;1.30;;;;;;;14.44;59.87;94035.81;5113798;28;20496;-74
2022/11/20 01:37:32;;;;;;;3.88;1.50;;;;;;;14.41;60.58;94014.44;5101573;28;20036;-74
2022/11/20 01:39:57;;;;;;;4.88;2.00;;;;;;;14.39;59.98;93998.13;5094449;28;20482;-74
2022/11/20 01:45:44;;;;;;;3.95;1.80;;;;;;;14.51;57.78;94020.25;5097010;28;20093;-74
2022/11/20 01:48:09;;;;;;;3.00;1.20;;;;;;;15.08;55.92;94000.88;5103942;28;20043;-74
2022/11/20 01:50:35;;;;;;;4.95;2.90;;;;;;;15.27;57.00;94004.84;5076339;28;20024;-74
2022/11/20 01:53:02;;;;;;;6.40;3.80;;;;;;;15.05;58.64;94006.47;5087730;28;20036;-74
2022/11/20 01:55:56;;;;;;;4.82;2.97;;;;;;;14.88;59.09;94003.94;5059517;28;20036;-74
2022/11/20 01:58:24;;;;;;;5.00;3.15;;;;;;;14.90;59.66;94020.25;5078554;28;20028;-74
2022/11/20 02:00:50;;;;;;;4.38;3.00;;;;;;;14.73;59.53;94011.69;5077023;28;20043;-75
2022/11/20 02:03:17;;;;;;;5.60;2.30;;;;;;;14.83;58.15;94008.88;5075956;28;20028;-74
2022/11/20 02:06:17;;;;;;;6.40;2.58;;;;;;;14.84;58.75;94031.41;5075924;28;20543;-74
2022/11/20 02:08:42;;;;;;;3.67;2.65;;;;;;;14.88;59.38;94027.47;5079904;28;20061;-74
2022/11/20 02:11:08;;;;;;;6.22;2.50;;;;;;;14.68;60.33;94031.50;5113016;28;20493;-74
2022/11/20 02:13:43;;;;;;;5.60;3.08;;;;;;;14.70;60.51;94039.97;5096189;28;20031;-74
2022/11/20 02:16:18;;;;;;;4.15;2.83;;;;;;;14.57;60.59;94035.31;5090033;28;20490;-74
2022/11/20 02:18:43;;;;;;;4.63;2.35;;;;;;;14.55;60.33;94041.69;5092258;28;20070;-74
2022/11/20 02:21:21;;;;;;;5.22;3.25;;;;;;;14.44;60.37;94025.38;5058991;28;20074;-74
2022/11/20 02:23:59;;;;;;;5.75;3.33;;;;;;;14.49;61.59;94038.75;5093651;28;20031;-74
2022/11/20 02:26:24;;;;;;;5.18;2.33;;;;;;;14.22;60.36;94029.53;5114036;28;20031;-74
2022/11/20 02:28:50;;;;;;;5.88;2.45;;;;;;;14.40;60.49;94028.47;5112872;28;20027;-74
2022/11/20 02:31:15;;;;;;;5.82;2.13;;;;;;;14.42;60.29;94031.75;5110845;28;20019;-74
2022/11/20 02:33:41;;;;;;;3.08;1.92;;;;;;;14.55;61.58;94049.53;5095528;28;20088;-74
2022/11/20 02:36:08;;;;;;;6.60;1.85;;;;;;;14.36;61.87;94042.88;5113859;28;20481;-74
2022/11/20 02:38:33;;;;;;;4.75;2.25;;;;;;;14.41;61.48;94046.59;5078131;28;20032;-74
2022/11/20 02:40:59;;;;;;;4.78;2.35;;;;;;;14.14;62.57;94047.00;5095354;28;20028;-74
2022/11/20 02:43:24;;;;;;;3.47;2.17;;;;;;;14.20;60.39;94035.91;5095677;28;20027;-74
2022/11/20 02:45:50;;;;;;;2.78;2.10;;;;;;;14.39;60.53;94037.31;5112748;28;20031;-74
2022/11/20 02:48:15;;;;;;;4.63;2.60;;;;;;;14.55;59.99;94042.50;5111540;28;20417;-74
2022/11/20 02:50:41;;;;;;;4.45;2.33;;;;;;;14.54;60.35;94056.53;5113570;28;20035;-74
2022/11/20 02:53:07;;;;;;;4.03;2.40;;;;;;;14.47;60.73;94056.38;5104687;28;20036;-74
2022/11/20 02:55:32;;;;;;;3.45;1.80;;;;;;;14.55;59.70;94062.59;5075117;28;20085;-74
2022/11/20 02:57:58;;;;;;;4.22;2.05;;;;;;;14.55;59.25;94042.50;5091636;28;20042;-74
2022/11/20 03:00:23;;;;;;;3.65;1.67;;;;;;;14.75;58.82;94067.25;5091870;28;20028;-74
2022/11/20 03:02:49;;;;;;;1.30;0.70;;;;;;;15.06;55.51;94061.19;5105846;28;20035;-74
2022/11/20 03:05:14;;;;;;;3.05;0.93;;;;;;;15.29;56.10;94058.59;5113255;28;20027;-74
2022/11/20 03:07:40;;;;;;;1.95;1.00;;;;;;;15.39;55.77;94066.22;5111625;28;20028;-75
2022/11/20 03:10:05;;;;;;;2.47;0.95;;;;;;;15.52;54.70;94063.03;5074946;28;20032;-74
2022/11/20 03:12:31;;;;;;;3.38;1.10;;;;;;;15.78;54.31;94081.00;5095034;28;20086;-74
2022/11/20 03:14:56;;;;;;;3.15;1.08;;;;;;;15.90;54.85;94073.53;5077842;28;20047;-75
2022/11/20 03:17:22;;;;;;;3.15;1.00;;;;;;;16.04;53.52;94063.09;5111757;28;20431;-74
2022/11/20 03:19:47;;;;;;;3.33;0.90;;;;;;;16.17;53.42;94074.78;5073617;28;20490;-74
2022/11/20 03:22:13;;;;;;;2.17;0.93;;;;;;;16.09;54.18;94079.09;5107530;28;20505;-75
2022/11/20 03:24:38;;;;;;;3.22;1.10;;;;;;;16.19;53.78;94072.78;5092452;28;20032;-74
2022/11/20 03:27:04;;;;;;;1.70;0.90;;;;;;;16.24;53.50;94079.13;5092537;28;20455;-74
2022/11/20 03:29:29;;;;;;;2.55;1.15;;;;;;;16.33;53.25;94100.81;5104201;28;20040;-75
2022/11/20 03:31:54;;;;;;;2.30;1.05;;;;;;;16.36;53.07;94095.22;5111170;28;20035;-74
2022/11/20 03:34:20;;;;;;;2.90;0.88;;;;;;;16.44;53.06;94096.94;5094550;28;20027;-75
2022/11/20 03:36:45;;;;;;;2.63;0.90;;;;;;;16.39;53.38;94089.59;5111448;28;20031;-75
2022/11/20 03:39:11;;;;;;;4.95;0.90;;;;;;;16.24;52.84;94052.09;5079746;28;20036;-75
2022/11/20 03:41:38;;;;;;;1.80;1.00;;;;;;;16.47;52.53;94081.66;5090930;28;20047;-75
2022/11/20 03:44:05;;;;;;;5.53;1.08;;;;;;;16.47;52.10;94079.03;5074080;28;20124;-75
2022/11/20 03:46:30;;;;;;;4.13;1.02;;;;;;;16.52;52.20;94081.94;5096633;28;20051;-75
2022/11/20 03:48:56;;;;;;;2.35;1.00;;;;;;;16.57;52.14;94089.25;5094223;28;20031;-75
2022/11/20 03:51:29;;;;;;;3.38;0.90;;;;;;;16.65;52.08;94085.72;5094244;28;20066;-75
2022/11/20 03:53:56;;;;;;;2.53;0.90;;;;;;;16.64;51.89;94074.41;5080430;28;20290;-75
2022/11/20 03:56:29;;;;;;;3.72;1.17;;;;;;;16.67;51.47;94079.31;5090635;28;20062;-75
2022/11/20 03:58:54;;;;;;;2.05;0.90;;;;;;;16.80;51.45;94078.69;5074068;28;20413;-74
2022/11/20 04:01:21;;;;;;;2.22;1.00;;;;;;;16.80;51.52;94081.31;5059168;28;22065;-75
2022/11/20 04:03:47;;;;;;;2.83;0.85;;;;;;;16.70;51.49;94086.00;5111022;28;20039;-75
2022/11/20 04:06:14;;;;;;;2.60;0.90;;;;;;;16.75;52.26;94089.69;5092037;28;20039;-75
2022/11/20 04:08:40;;;;;;;3.40;1.00;;;;;;;16.75;52.53;94096.75;5110978;28;20114;-74
2022/11/20 04:11:12;;;;;;;2.88;1.00;;;;;;;16.75;53.16;94102.00;5093622;28;20143;-75
2022/11/20 04:13:38;;;;;;;1.30;0.80;;;;;;;16.48;51.63;94108.69;5110814;28;20032;-74
2022/11/20 04:16:05;;;;;;;2.65;1.02;;;;;;;16.57;51.36;94106.78;5099398;28;20035;-75
2022/11/20 04:18:30;;;;;;;3.97;1.10;;;;;;;16.72;51.75;94107.59;5091764;28;20028;-75
2022/11/20 04:20:57;;;;;;;2.42;0.80;;;;;;;16.61;51.24;94100.19;5073457;28;20497;-74
2022/11/20 04:23:23;;;;;;;4.85;1.00;;;;;;;16.75;51.48;94117.72;5088782;28;20058;-75
2022/11/20 04:25:48;;;;;;;2.33;0.90;;;;;;;16.68;50.70;94114.19;5093533;28;20031;-75
2022/11/20 04:28:14;;;;;;;1.63;0.80;;;;;;;16.79;51.58;94132.13;5110376;28;20035;-75
2022/11/20 04:30:39;;;;;;;2.15;1.00;;;;;;;16.80;51.99;94133.78;5108277;28;20036;-75
2022/11/20 04:33:05;;;;;;;2.92;1.50;;;;;;;16.74;52.78;94135.28;5110336;28;20030;-75
2022/11/20 04:35:30;;;;;;;2.10;0.90;;;;;;;16.67;52.90;94146.66;5110481;28;20036;-75
2022/11/20 04:37:55;;;;;;;2.70;0.95;;;;;;;16.62;53.86;94131.47;5082808;28;20040;-75
2022/11/20 04:40:21;;;;;;;3.80;1.27;;;;;;;16.51;53.64;94130.09;5089902;28;20097;-75
2022/11/20 04:42:46;;;;;;;2.25;0.90;;;;;;;16.52;54.10;94134.38;5091505;28;20618;-75
2022/11/20 04:45:12;;;;;;;5.90;1.10;;;;;;;16.40;55.27;94127.91;5073056;28;20024;-75
2022/11/20 04:47:37;;;;;;;2.35;0.80;;;;;;;16.48;55.22;94129.66;5106776;28;20107;-75
2022/11/20 04:50:03;;;;;;;2.47;0.98;;;;;;;16.29;55.61;94120.50;5090998;28;20043;-75
2022/11/20 04:52:28;;;;;;;3.60;1.08;;;;;;;16.30;55.32;94116.91;5095060;28;20028;-75
2022/11/20 04:54:54;;;;;;;1.88;1.10;;;;;;;16.21;55.45;94097.78;5093148;28;20092;-75
2022/11/20 04:57:19;;;;;;;3.55;1.88;;;;;;;16.23;55.33;94102.88;5110035;28;20039;-75
2022/11/20 04:59:45;;;;;;;3.75;1.50;;;;;;;16.24;55.34;94118.44;5110054;28;20481;-75
2022/11/20 05:02:11;;;;;;;3.97;0.90;;;;;;;16.16;55.39;94129.00;5109940;28;20024;-75
2022/11/20 05:04:36;;;;;;;4.13;1.27;;;;;;;16.25;55.14;94137.59;5109362;28;20028;-75
2022/11/20 05:07:02;;;;;;;2.42;1.10;;;;;;;16.26;55.28;94131.34;5093077;28;20500;-75
2022/11/20 05:09:27;;;;;;;3.63;1.13;;;;;;;16.14;57.02;94122.28;5100095;28;20024;-75
2022/11/20 05:11:53;;;;;;;3.58;0.90;;;;;;;15.95;59.79;94103.44;5072598;28;20056;-74
2022/11/20 05:14:18;;;;;;;3.72;0.90;;;;;;;16.03;60.59;94136.63;5091197;28;20036;-75
2022/11/20 05:16:44;;;;;;;3.00;1.20;;;;;;;15.96;62.29;94136.50;5072720;28;20067;-74
2022/11/20 05:19:09;;;;;;;5.38;1.02;;;;;;;15.86;62.51;94128.91;5088249;28;20374;-75
2022/11/20 05:21:34;;;;;;;2.88;1.05;;;;;;;15.70;62.69;94128.19;5093011;28;20414;-75
2022/11/20 05:24:00;;;;;;;3.75;1.10;;;;;;;15.67;63.18;94121.47;5080006;28;20043;-75
2022/11/20 05:26:25;;;;;;;3.33;1.00;;;;;;;15.55;63.57;94117.66;5090600;28;20028;-75
2022/11/20 05:28:51;;;;;;;2.75;1.23;;;;;;;15.45;63.49;94091.69;5087561;28;20036;-74
2022/11/20 05:31:18;;;;;;;3.85;1.20;;;;;;;15.31;64.00;94105.53;5089404;28;20077;-74
2022/11/20 05:33:44;;;;;;;2.88;1.10;;;;;;;15.18;64.84;94117.38;5105454;28;20020;-75
2022/11/20 05:36:09;;;;;;;3.70;1.17;;;;;;;15.26;64.46;94126.16;5092238;28;20039;-75
2022/11/20 05:38:35;;;;;;;3.38;1.10;;;;;;;15.28;64.10;94137.28;5085302;28;20743;-75
2022/11/20 05:41:04;;;;;;;5.53;1.20;;;;;;;14.95;64.00;94122.53;5090425;28;20472;-75
2022/11/20 05:43:34;;;;;;;3.35;1.13;;;;;;;15.13;64.29;94137.19;5089504;28;20035;-75
2022/11/20 05:46:00;;;;;;;5.00;1.17;;;;;;;15.09;65.14;94123.63;5093216;28;20032;-75
2022/11/20 05:48:25;;;;;;;5.03;1.08;;;;;;;14.85;64.49;94124.56;5092635;28;20030;-75
2022/11/20 05:50:51;;;;;;;3.55;1.30;;;;;;;15.02;64.16;94124.50;5086993;28;20421;-75
2022/11/20 05:53:16;;;;;;;3.88;1.20;;;;;;;15.02;63.48;94119.28;5096236;28;20144;-74
2022/11/20 05:55:42;;;;;;;3.20;1.00;;;;;;;14.93;63.53;94118.47;5093916;28;20036;-75
2022/11/20 05:58:07;;;;;;;2.53;1.10;;;;;;;15.04;63.20;94112.84;5075885;28;20532;-75
2022/11/20 06:00:33;;;;;;;3.42;1.00;;;;;;;15.06;63.52;94113.50;5090773;28;20498;-74
2022/11/20 06:02:58;;;;;;;3.50;1.27;;;;;;;15.03;64.16;94113.03;5092882;28;20097;-75
2022/11/20 06:05:23;;;;;;;4.22;1.00;;;;;;;14.98;64.55;94110.94;5094075;28;20093;-75
2022/11/20 06:07:49;;;;;;;4.45;1.10;;;;;;;15.06;65.07;94115.31;5110379;28;20027;-75
2022/11/20 06:10:14;;;;;;;2.47;1.00;;;;;;;15.12;64.03;94110.19;5092782;28;20513;-75
2022/11/20 06:12:40;;;;;;;3.88;1.10;;;;;;;14.94;63.18;94088.72;5088084;28;20573;-74
2022/11/20 06:15:06;;;;;;;2.47;1.25;;;;;;;15.13;63.15;94098.78;5090997;28;20032;-75
2022/11/20 06:17:31;;;;;;;4.45;1.25;;;;;;;15.19;62.48;94103.31;5092434;28;20084;-74
2022/11/20 06:19:56;;;;;;;1.75;0.93;;;;;;;15.38;62.09;94106.47;5091254;28;20194;-75
2022/11/20 06:22:22;;;;;;;19.27;11.73;;;;;;;15.30;62.97;94101.28;5092424;28;20020;-75
2022/11/20 06:24:47;;;;;;;3.05;1.75;;;;;;;15.25;63.30;94116.69;5107878;28;20814;-75
2022/11/20 06:27:13;;;;;;;3.45;1.20;;;;;;;15.20;62.21;94120.63;5091966;28;20470;-74
2022/11/20 06:29:38;;;;;;;3.55;1.20;;;;;;;15.27;62.30;94139.09;5110959;28;20039;-75
2022/11/20 06:32:04;;;;;;;5.78;1.05;;;;;;;15.24;62.52;94128.97;5091755;28;20028;-75
2022/11/20 06:34:29;;;;;;;3.83;1.13;;;;;;;15.32;62.05;94117.63;5108283;28;20038;-75
2022/11/20 06:36:55;;;;;;;6.63;1.20;;;;;;;15.25;61.54;94121.91;5111675;27;20042;-74
2022/11/20 06:39:20;;;;;;;5.10;1.17;;;;;;;15.30;61.54;94130.88;5108116;28;20031;-75
2022/11/20 06:41:46;;;;;;;3.70;1.35;;;;;;;15.44;61.50;94121.47;5109447;27;20042;-75
2022/11/20 06:44:11;;;;;;;4.35;1.00;;;;;;;15.40;61.56;94135.88;5106877;28;20027;-75
2022/11/20 06:46:37;;;;;;;3.63;1.40;;;;;;;15.52;61.90;94124.03;5090360;28;20031;-75
2022/11/20 06:49:02;;;;;;;3.30;1.02;;;;;;;15.51;60.46;94106.69;5108471;28;20030;-75
2022/11/20 06:51:28;;;;;;;4.03;1.17;;;;;;;15.42;60.32;94120.84;5107576;27;20085;-75
2022/11/20 06:53:53;;;;;;;3.40;1.00;;;;;;;15.56;60.19;94120.09;5107591;28;20482;-75
2022/11/20 06:56:19;;;;;;;2.55;0.85;;;;;;;15.70;59.79;94121.16;5073470;28;20036;-75
2022/11/20 06:58:44;;;;;;;3.70;1.05;;;;;;;15.76;59.44;94135.34;5072031;28;20031;-75
2022/11/20 07:01:11;;;;;;;3.90;1.10;;;;;;;15.82;59.46;94140.72;5090848;28;20039;-75
2022/11/20 07:03:36;;;;;;;2.28;0.90;;;;;;;15.88;58.67;94135.75;5073807;28;20023;-75
2022/11/20 07:06:02;;;;;;;2.60;0.95;;;;;;;15.96;58.42;94141.72;5089395;28;20024;-75
2022/11/20 07:08:28;;;;;;;2.80;0.93;;;;;;;15.90;57.28;94142.44;5107887;27;20393;-75
2022/11/20 07:10:57;;;;;;;4.88;1.20;;;;;;;16.06;57.65;94131.84;5108113;28;20056;-77
2022/11/20 07:13:22;;;;;;;7.47;1.30;;;;;;;16.14;57.57;94127.53;5086678;28;20024;-75
2022/11/20 07:15:48;;;;;;;3.05;1.05;;;;;;;16.25;58.38;94138.38;5108984;27;20119;-74
2022/11/20 07:18:13;;;;;;;2.70;1.20;;;;;;;16.34;58.81;94139.13;5086785;28;20032;-74
2022/11/20 07:20:39;;;;;;;3.50;1.33;;;;;;;16.09;60.64;94121.00;5109159;27;20378;-75
2022/11/20 07:23:04;;;;;;;2.95;1.50;;;;;;;16.22;60.22;94145.81;5090186;28;20175;-74
2022/11/20 07:25:30;;;;;;;5.80;1.23;;;;;;;16.15;57.91;94134.38;5085675;28;20047;-75
2022/11/20 07:27:59;;;;;;;3.83;1.15;;;;;;;16.17;57.91;94145.50;5108196;28;20027;-74
2022/11/20 07:30:24;;;;;;;2.75;1.08;;;;;;;16.15;57.06;94122.09;5107628;27;20028;-72
2022/11/20 07:32:53;;;;;;;1.80;0.98;;;;;;;16.28;58.02;94153.75;5109585;27;20038;-72
2022/11/20 07:35:19;;;;;;;2.75;1.00;;;;;;;16.24;57.72;94149.03;5085623;28;20028;-72
2022/11/20 07:37:45;;;;;;;4.32;1.02;;;;;;;16.25;57.46;94142.81;5092860;28;20031;-72
2022/11/20 07:40:12;;;;;;;4.22;1.40;;;;;;;16.27;57.59;94117.25;5106195;28;20493;-72
2022/11/20 07:42:37;;;;;;;4.50;1.45;;;;;;;16.05;56.99;94132.84;5090966;28;20115;-73
2022/11/20 07:45:03;;;;;;;2.97;0.85;;;;;;;16.23;56.90;94134.31;5102623;28;20030;-77
2022/11/20 07:47:28;;;;;;;4.47;1.27;;;;;;;16.27;58.06;94143.47;5105292;27;20043;-74
2022/11/20 07:49:54;;;;;;;18.17;8.45;;;;;;;16.18;57.15;94116.50;5108145;28;20035;-73
2022/11/20 07:52:19;;;;;;;2.97;1.00;;;;;;;16.17;57.14;94135.84;5093764;28;20027;-75
2022/11/20 07:54:45;;;;;;;2.58;1.10;;;;;;;16.13;57.18;94131.13;5084344;27;20481;-71
2022/11/20 07:57:10;;;;;;;2.35;0.93;;;;;;;16.19;56.07;94122.56;5090356;28;20038;-71
2022/11/20 07:59:36;;;;;;;3.92;1.08;;;;;;;16.22;56.58;94137.94;5090098;28;20488;-72
2022/11/20 08:02:02;;;;;;;6.32;1.15;;;;;;;16.37;56.73;94140.56;5111189;27;20484;-72
2022/11/20 08:04:27;;;;;;;3.47;1.13;;;;;;;16.24;56.23;94139.41;5089439;28;20036;-71
2022/11/20 08:06:53;;;;;;;6.55;1.08;;;;;;;16.28;57.11;94142.47;5112551;27;20038;-72
2022/11/20 08:09:18;;;;;;;4.38;1.05;;;;;;;16.32;57.24;94143.72;5069523;28;20039;-72
2022/11/20 08:14:28;;;;;;;2.83;0.95;;;;;;;16.20;57.83;94104.03;5107135;28;20042;-72
2022/11/20 08:16:53;;;;;;;7.88;1.20;;;;;;;16.35;57.18;94125.00;5103581;27;20650;-72
2022/11/20 08:19:19;;;;;;;3.25;0.90;;;;;;;16.38;55.95;94121.22;5105415;28;20028;-71
2022/11/20 08:21:44;;;;;;;3.15;1.00;;;;;;;16.42;55.66;94131.19;5107109;27;20027;-71
2022/11/20 08:24:10;;;;;;;3.33;0.90;;;;;;;16.54;56.29;94124.50;5105632;27;20049;-72
2022/11/20 08:26:36;;;;;;;3.45;1.00;;;;;;;16.56;55.83;94126.13;5106860;28;20043;-71
2022/11/20 08:29:02;;;;;;;2.22;1.10;;;;;;;16.53;55.57;94117.63;5087672;28;20030;-72
2022/11/20 08:31:28;;;;;;;2.90;0.80;;;;;;;16.58;55.50;94124.97;5100593;28;20130;-71
2022/11/20 08:33:53;;;;;;;3.60;0.93;;;;;;;16.73;55.55;94130.22;5099696;28;20032;-74
2022/11/20 08:36:19;;;;;;;3.33;1.00;;;;;;;16.70;55.66;94117.47;5080147;28;20040;-73
2022/11/20 08:38:49;;;;;;;5.45;1.02;;;;;;;16.79;55.71;94123.44;5084874;28;20028;-72
2022/11/20 08:41:23;;;;;;;3.88;1.55;;;;;;;16.85;55.75;94134.03;5084255;28;20039;-72
2022/11/20 08:43:49;;;;;;;4.38;1.17;;;;;;;16.83;54.00;94138.66;5100210;28;20023;-72
2022/11/20 08:46:15;;;;;;;4.95;0.88;;;;;;;16.80;54.31;94133.78;5065835;28;20032;-72
2022/11/20 08:48:40;;;;;;;3.40;1.20;;;;;;;16.97;53.94;94145.69;5086237;28;20032;-72
2022/11/20 08:51:06;;;;;;;4.85;1.23;;;;;;;17.00;54.19;94149.78;5089336;28;20020;-72
2022/11/20 08:53:31;;;;;;;4.13;2.35;;;;;;;17.05;54.87;94165.78;5105518;27;20537;-72
2022/11/20 08:55:57;;;;;;;4.85;1.77;;;;;;;17.05;54.57;94164.94;5106579;28;20035;-72
2022/11/20 08:58:23;;;;;;;4.05;1.77;;;;;;;17.20;55.35;94184.13;5107411;28;20036;-72
2022/11/20 09:00:48;;;;;;;6.28;1.92;;;;;;;17.24;54.84;94182.75;5087775;28;20722;-72
2022/11/20 09:03:14;;;;;;;3.95;1.90;;;;;;;17.27;54.51;94171.06;5105106;28;20055;-72
2022/11/20 09:05:39;;;;;;;5.47;1.85;;;;;;;17.23;56.24;94173.25;5104480;28;20031;-72
2022/11/20 09:08:05;;;;;;;3.78;1.55;;;;;;;17.28;56.59;94172.72;5104860;28;20028;-72
2022/11/20 09:10:30;;;;;;;4.80;2.50;;;;;;;17.19;56.27;94159.69;5106220;28;21221;-72
2022/11/20 09:12:56;;;;;;;5.28;2.80;;;;;;;17.06;56.84;94175.28;5103886;28;20398;-72
2022/11/20 09:15:21;;;;;;;4.72;2.60;;;;;;;16.98;56.63;94178.78;5085550;28;20032;-72
2022/11/20 09:17:54;;;;;;;5.30;2.45;;;;;;;16.92;55.22;94169.03;5110880;28;20034;-72
2022/11/20 09:20:19;;;;;;;5.95;1.90;;;;;;;16.78;56.51;94182.16;5106249;28;20457;-72
2022/11/20 09:22:44;;;;;;;5.80;2.03;;;;;;;16.71;56.26;94182.00;5105895;28;20059;-72
2022/11/20 09:25:10;;;;;;;6.28;2.15;;;;;;;16.70;55.90;94167.28;5107222;28;20413;-72
2022/11/20 09:27:35;;;;;;;5.53;1.80;;;;;;;16.72;55.93;94178.41;5105974;28;20096;-72
2022/11/20 09:30:02;;;;;;;5.78;1.88;;;;;;;16.87;54.99;94171.38;5111375;28;20038;-72
2022/11/20 09:32:27;;;;;;;7.60;2.78;;;;;;;16.93;55.42;94165.41;5111200;27;21112;-73
2022/11/20 09:34:52;;;;;;;3.92;2.10;;;;;;;16.92;54.27;94178.72;5109870;28;20019;-72
2022/11/20 09:37:18;;;;;;;5.50;1.92;;;;;;;16.93;54.85;94178.53;5110674;27;20023;-72
2022/11/20 09:39:43;;;;;;;7.85;2.20;;;;;;;17.15;54.90;94178.59;5110582;28;20039;-72
2022/11/20 09:42:21;;;;;;;4.07;1.70;;;;;;;17.21;54.92;94167.38;5111831;27;20031;-72
2022/11/20 09:44:56;;;;;;;3.90;1.65;;;;;;;17.30;54.71;94163.66;5111867;28;20497;-72
2022/11/20 09:47:28;;;;;;;5.22;2.40;;;;;;;17.36;54.86;94168.19;5111833;27;20031;-72
2022/11/20 09:50:05;;;;;;;6.32;2.30;;;;;;;17.13;55.96;94170.09;5110273;28;20035;-72
2022/11/20 09:52:46;;;;;;;3.97;2.22;;;;;;;17.33;55.64;94173.81;5111045;27;20046;-72
2022/11/20 09:55:12;;;;;;;8.35;3.15;;;;;;;17.09;56.90;94168.84;5111356;28;20027;-72
2022/11/20 09:57:39;;;;;;;9.05;3.33;;;;;;;16.95;57.69;94173.91;5076295;28;20046;-72
2022/11/20 10:00:05;;;;;;;6.43;3.25;;;;;;;16.98;57.82;94157.81;5092794;28;20239;-72
2022/11/20 10:02:42;;;;;;;5.63;2.92;;;;;;;16.94;58.02;94153.94;5096654;28;20054;-72
2022/11/20 10:05:18;;;;;;;5.05;3.10;;;;;;;16.92;59.89;94140.19;5097877;28;20109;-72
2022/11/20 10:08:13;;;;;;;5.85;3.25;;;;;;;16.90;59.30;94139.53;5103161;27;20035;-76
2022/11/20 10:10:39;;;;;;;7.45;3.03;;;;;;;16.74;58.84;94135.28;5106179;28;20056;-74
2022/11/20 10:13:16;;;;;;;5.70;2.72;;;;;;;16.75;59.04;94117.72;5110768;27;20031;-73
2022/11/20 10:16:04;;;;;;;5.38;3.03;;;;;;;16.81;58.48;94095.25;5109033;28;20416;-77
2022/11/20 10:19:08;;;;;;;8.40;3.50;;;;;;;16.52;61.07;94126.50;5109073;27;20052;-77
2022/11/20 10:21:52;;;;;;;4.75;2.95;;;;;;;15.90;63.29;94126.72;5096766;27;20096;-76
2022/11/20 10:24:20;;;;;;;6.03;2.90;;;;;;;15.82;63.97;94111.09;5109013;28;20027;-75
2022/11/20 10:27:37;;;;;;;7.28;3.00;;;;;;;15.57;65.85;94121.72;5108037;27;20044;-77
2022/11/20 10:30:13;;;;;;;5.53;2.28;;;;;;;15.45;65.31;94120.47;5060758;28;20040;-76
2022/11/20 10:32:46;;;;;;;4.35;2.55;;;;;;;15.19;66.53;94124.22;5019844;28;20066;-77
2022/11/20 10:35:24;;;;;;;6.28;3.00;;;;;;;15.12;67.32;94123.28;5095052;28;20453;-77
2022/11/20 10:37:53;;;;;;;7.45;2.88;;;;;;;15.26;67.08;94128.78;5111154;27;20039;-76
2022/11/20 10:40:25;;;;;;;6.88;2.70;;;;;;;15.30;66.26;94130.88;5073151;28;20040;-76
2022/11/20 10:42:59;;;;;;;5.93;2.70;;;;;;;15.51;65.55;94129.44;5108469;27;20031;-76
2022/11/20 10:45:24;;;;;;;5.68;1.98;;;;;;;15.41;65.03;94127.06;5109003;28;20028;-76
2022/11/20 10:48:12;;;;;;;4.45;1.80;;;;;;;15.50;64.50;94102.47;5112165;27;20540;-76
2022/11/20 10:50:40;;;;;;;6.97;1.60;;;;;;;15.52;63.66;94079.56;5110540;28;21124;-76
2022/11/20 10:53:15;;;;;;;4.80;1.70;;;;;;;15.65;63.85;94108.56;5114882;27;20027;-76
2022/11/20 10:55:47;;;;;;;5.35;1.63;;;;;;;15.58;63.70;94118.09;5090779;28;20031;-76
2022/11/20 10:58:42;;;;;;;3.75;2.35;;;;;;;15.60;63.98;94116.13;5106717;27;20560;-75
2022/11/20 11:01:17;;;;;;;4.32;2.17;;;;;;;15.47;63.78;94087.09;5082872;27;20131;-74
2022/11/20 11:03:43;;;;;;;4.07;2.15;;;;;;;15.68;63.72;94110.03;5091400;28;20114;-76
2022/11/20 11:06:30;;;;;;;4.95;1.98;;;;;;;15.43;63.33;94104.13;5102719;27;20119;-74
2022/11/20 11:08:57;;;;;;;4.38;1.77;;;;;;;15.44;63.36;94124.09;5104288;28;20027;-74
2022/11/20 11:11:24;;;;;;;3.90;1.90;;;;;;;15.72;62.76;94140.13;5106970;27;20063;-72
2022/11/20 11:13:50;;;;;;;6.22;2.97;;;;;;;15.84;62.38;94143.16;5087428;28;20050;-73
2022/11/20 11:16:23;;;;;;;9.95;2.30;;;;;;;15.88;62.44;94154.09;5085358;28;20497;-73
2022/11/20 11:18:49;;;;;;;7.10;3.47;;;;;;;15.87;63.95;94182.09;5090187;27;20027;-73
2022/11/20 11:21:25;;;;;;;7.28;2.90;;;;;;;15.86;64.64;94194.38;5108483;27;20036;-74
2022/11/20 11:24:02;;;;;;;7.10;3.28;;;;;;;15.94;65.36;94222.31;5106204;28;20181;-74
2022/11/20 11:26:27;;;;;;;7.95;2.53;;;;;;;15.77;67.02;94194.59;5089563;27;20992;-73
2022/11/20 11:28:54;;;;;;;6.30;2.88;;;;;;;15.61;68.91;94198.91;5072497;28;20110;-74
2022/11/20 11:31:25;;;;;;;9.13;3.08;;;;;;;15.20;70.51;94191.25;5106760;28;20023;-74
2022/11/20 11:33:50;;;;;;;8.50;3.72;;;;;;;14.93;72.71;94189.91;5107252;28;20066;-74
2022/11/20 11:36:24;;;;;;;7.10;3.30;;;;;;;14.87;72.12;94211.47;5105286;28;20429;-74
2022/11/20 11:38:51;;;;;;;6.50;3.40;;;;;;;15.01;71.81;94251.81;5084573;28;20024;-74
2022/11/20 11:41:21;;;;;;;5.43;2.85;;;;;;;15.04;72.53;94261.94;5090495;28;20118;-74
2022/11/20 11:46:39;;;;;;;9.13;3.38;;;;;;;14.79;73.43;94260.38;5090588;27;20128;-74